Werkendam, Netherlands
Current Conditions -  °F | °C
As of 2:25 PM on Wednesday 22 Oct 2014 (Local Time) from EHGR Reporting Station
Scattered Clouds Scattered Clouds  
Wind Chill: 55°   Ceiling: Unl
Heat Index: 55°   Visibility: 6mi
Dew Point: 45°   Wind: 21mph
Humidity: 67%   Direction: 300°WNW
Pressure: 30.09"   Gusts: NA
Location:  51.81°N, 4.89°E
Report Text: EHGR 221225Z AUTO 30018KT 9999 FEW044 13/07 Q1019 BLU 29012G22KT 9999 SCT035 TEMPO 31018G30KT 5000 -SHRA FEW012 SCT017CB
Loading
Personal Weather Stations






























Interactive Weather Map
Tropical Storm Tracking
New forecast layout! Learn more

10-Day Weather Forecast

Advertisements
Track Severe Weather on mobile